sensor_id;sensor_type;location;lat;lon;timestamp;pressure;altitude;pressure_sealevel;temperature;humidity
44255;BME280;29933;47.226;15.734;2022-11-25T00:01:24;96353.50;;;-0.19;100.00
44255;BME280;29933;47.226;15.734;2022-11-25T00:03:53;96351.78;;;-0.15;100.00
44255;BME280;29933;47.226;15.734;2022-11-25T00:06:26;96356.94;;;-0.10;100.00
44255;BME280;29933;47.226;15.734;2022-11-25T00:09:08;96353.66;;;-0.15;100.00
44255;BME280;29933;47.226;15.734;2022-11-25T00:11:40;96349.91;;;-0.23;100.00
44255;BME280;29933;47.226;15.734;2022-11-25T00:14:11;96357.44;;;-0.25;100.00
44255;BME280;29933;47.226;15.734;2022-11-25T00:16:37;96359.00;;;-0.24;100.00
44255;BME280;29933;47.226;15.734;2022-11-25T00:19:03;96355.84;;;-0.26;100.00
44255;BME280;29933;47.226;15.734;2022-11-25T00:21:32;96351.75;;;-0.24;100.00
44255;BME280;29933;47.226;15.734;2022-11-25T00:24:05;96353.34;;;-0.23;100.00
44255;BME280;29933;47.226;15.734;2022-11-25T00:26:34;96358.81;;;-0.10;100.00
44255;BME280;29933;47.226;15.734;2022-11-25T00:29:03;96348.44;;;-0.03;100.00
44255;BME280;29933;47.226;15.734;2022-11-25T00:31:32;96357.53;;;-0.04;100.00
44255;BME280;29933;47.226;15.734;2022-11-25T00:33:58;96355.69;;;-0.04;100.00
44255;BME280;29933;47.226;15.734;2022-11-25T00:36:34;96356.31;;;-0.07;100.00
44255;BME280;29933;47.226;15.734;2022-11-25T00:39:11;96361.34;;;-0.14;100.00
44255;BME280;29933;47.226;15.734;2022-11-25T00:41:37;96360.41;;;-0.27;100.00
44255;BME280;29933;47.226;15.734;2022-11-25T00:44:22;96366.53;;;-0.44;100.00
44255;BME280;29933;47.226;15.734;2022-11-25T00:47:22;96368.59;;;-0.41;100.00
44255;BME280;29933;47.226;15.734;2022-11-25T00:49:52;96365.44;;;-0.34;100.00
44255;BME280;29933;47.226;15.734;2022-11-25T00:52:26;96371.44;;;-0.37;100.00
44255;BME280;29933;47.226;15.734;2022-11-25T00:54:53;96356.19;;;-0.37;100.00
44255;BME280;29933;47.226;15.734;2022-11-25T00:57:22;96364.34;;;-0.33;100.00
44255;BME280;29933;47.226;15.734;2022-11-25T00:59:48;96355.56;;;-0.34;100.00
44255;BME280;29933;47.226;15.734;2022-11-25T01:02:15;96352.72;;;-0.28;100.00
44255;BME280;29933;47.226;15.734;2022-11-25T01:04:42;96355.56;;;-0.25;100.00
44255;BME280;29933;47.226;15.734;2022-11-25T01:07:08;96355.84;;;-0.26;100.00
44255;BME280;29933;47.226;15.734;2022-11-25T01:09:33;96365.44;;;-0.25;100.00
44255;BME280;29933;47.226;15.734;2022-11-25T01:11:59;96362.94;;;-0.30;100.00
44255;BME280;29933;47.226;15.734;2022-11-25T01:14:26;96359.00;;;-0.33;100.00
44255;BME280;29933;47.226;15.734;2022-11-25T01:16:51;96365.59;;;-0.30;100.00
44255;BME280;29933;47.226;15.734;2022-11-25T01:19:18;96363.84;;;-0.26;100.00
44255;BME280;29933;47.226;15.734;2022-11-25T01:21:44;96369.69;;;-0.24;100.00
44255;BME280;29933;47.226;15.734;2022-11-25T01:24:13;96363.72;;;-0.21;100.00
44255;BME280;29933;47.226;15.734;2022-11-25T01:26:40;96359.00;;;-0.24;100.00
44255;BME280;29933;47.226;15.734;2022-11-25T01:29:14;96358.25;;;-0.34;100.00
44255;BME280;29933;47.226;15.734;2022-11-25T01:31:41;96370.34;;;-0.45;100.00
44255;BME280;29933;47.226;15.734;2022-11-25T01:34:21;96370.03;;;-0.52;100.00
44255;BME280;29933;47.226;15.734;2022-11-25T01:36:48;96373.63;;;-0.48;100.00
44255;BME280;29933;47.226;15.734;2022-11-25T01:39:25;96367.78;;;-0.33;100.00
44255;BME280;29933;47.226;15.734;2022-11-25T01:41:51;96368.59;;;-0.23;100.00
44255;BME280;29933;47.226;15.734;2022-11-25T01:44:20;96365.75;;;-0.18;100.00
44255;BME280;29933;47.226;15.734;2022-11-25T01:47:15;96364.47;;;-0.12;100.00
44255;BME280;29933;47.226;15.734;2022-11-25T01:50:04;96359.75;;;0.03;100.00
44255;BME280;29933;47.226;15.734;2022-11-25T01:52:39;96359.72;;;0.11;100.00
44255;BME280;29933;47.226;15.734;2022-11-25T01:55:26;96359.72;;;0.11;100.00
44255;BME280;29933;47.226;15.734;2022-11-25T01:58:20;96356.59;;;0.01;100.00
44255;BME280;29933;47.226;15.734;2022-11-25T02:00:47;96364.31;;;-0.07;100.00
44255;BME280;29933;47.226;15.734;2022-11-25T02:03:30;96374.66;;;0.04;100.00
44255;BME280;29933;47.226;15.734;2022-11-25T02:06:23;96376.22;;;0.05;100.00
44255;BME280;29933;47.226;15.734;2022-11-25T02:08:52;96377.97;;;0.01;100.00
44255;BME280;29933;47.226;15.734;2022-11-25T02:11:21;96373.25;;;-0.03;100.00
44255;BME280;29933;47.226;15.734;2022-11-25T02:13:49;96379.88;;;0.00;100.00
44255;BME280;29933;47.226;15.734;2022-11-25T02:16:16;96386.59;;;-0.03;100.00
44255;BME280;29933;47.226;15.734;2022-11-25T02:18:41;96381.44;;;-0.08;100.00
44255;BME280;29933;47.226;15.734;2022-11-25T02:21:07;96389.00;;;-0.10;100.00
44255;BME280;29933;47.226;15.734;2022-11-25T02:23:55;96393.69;;;-0.07;100.00
44255;BME280;29933;47.226;15.734;2022-11-25T02:26:23;96394.00;;;-0.08;100.00
44255;BME280;29933;47.226;15.734;2022-11-25T02:28:49;96397.75;;;-0.09;100.00
44255;BME280;29933;47.226;15.734;2022-11-25T02:31:20;96396.53;;;-0.12;100.00
44255;BME280;29933;47.226;15.734;2022-11-25T02:33:46;96399.94;;;-0.03;100.00
44255;BME280;29933;47.226;15.734;2022-11-25T02:36:17;96395.72;;;0.05;100.00
44255;BME280;29933;47.226;15.734;2022-11-25T02:38:55;96401.19;;;0.18;100.00
44255;BME280;29933;47.226;15.734;2022-11-25T02:41:30;96402.88;;;0.22;100.00
44255;BME280;29933;47.226;15.734;2022-11-25T02:43:57;96403.84;;;0.26;100.00
44255;BME280;29933;47.226;15.734;2022-11-25T02:46:25;96405.84;;;0.29;100.00
44255;BME280;29933;47.226;15.734;2022-11-25T02:48:54;96414.53;;;0.26;100.00
44255;BME280;29933;47.226;15.734;2022-11-25T02:51:25;96411.56;;;0.10;100.00
44255;BME280;29933;47.226;15.734;2022-11-25T02:53:52;96408.59;;;0.03;100.00
44255;BME280;29933;47.226;15.734;2022-11-25T02:56:20;96407.94;;;0.06;100.00
44255;BME280;29933;47.226;15.734;2022-11-25T02:58:46;96404.00;;;0.12;100.00
44255;BME280;29933;47.226;15.734;2022-11-25T03:01:12;96412.66;;;0.18;100.00
44255;BME280;29933;47.226;15.734;2022-11-25T03:03:38;96418.28;;;0.25;100.00
44255;BME280;29933;47.226;15.734;2022-11-25T03:06:05;96418.13;;;0.30;100.00
44255;BME280;29933;47.226;15.734;2022-11-25T03:08:30;96424.22;;;0.31;100.00
44255;BME280;29933;47.226;15.734;2022-11-25T03:10:56;96431.00;;;0.28;100.00
44255;BME280;29933;47.226;15.734;2022-11-25T03:13:22;96428.97;;;0.25;100.00
44255;BME280;29933;47.226;15.734;2022-11-25T03:15:48;96433.25;;;0.18;100.00
44255;BME280;29933;47.226;15.734;2022-11-25T03:18:14;96430.09;;;0.15;100.00
44255;BME280;29933;47.226;15.734;2022-11-25T03:20:40;96428.38;;;0.11;100.00
44255;BME280;29933;47.226;15.734;2022-11-25T03:23:06;96434.97;;;0.05;100.00
44255;BME280;29933;47.226;15.734;2022-11-25T03:25:34;96427.91;;;-0.09;100.00
44255;BME280;29933;47.226;15.734;2022-11-25T03:28:00;96427.31;;;-0.14;100.00
44255;BME280;29933;47.226;15.734;2022-11-25T03:30:27;96432.47;;;-0.18;100.00
44255;BME280;29933;47.226;15.734;2022-11-25T03:32:53;96434.38;;;-0.27;100.00
44255;BME280;29933;47.226;15.734;2022-11-25T03:35:20;96439.56;;;-0.31;100.00
44255;BME280;29933;47.226;15.734;2022-11-25T03:37:46;96434.38;;;-0.27;100.00
44255;BME280;29933;47.226;15.734;2022-11-25T03:40:14;96439.88;;;-0.15;100.00
44255;BME280;29933;47.226;15.734;2022-11-25T03:42:41;96435.78;;;-0.04;100.00
44255;BME280;29933;47.226;15.734;2022-11-25T03:45:09;96443.16;;;-0.01;100.00
44255;BME280;29933;47.226;15.734;2022-11-25T03:47:38;96441.13;;;-0.04;100.00
44255;BME280;29933;47.226;15.734;2022-11-25T03:50:04;96443.16;;;-0.01;100.00
44255;BME280;29933;47.226;15.734;2022-11-25T03:52:30;96452.72;;;0.01;100.00
44255;BME280;29933;47.226;15.734;2022-11-25T03:54:56;96460.75;;;0.01;100.00
44255;BME280;29933;47.226;15.734;2022-11-25T03:57:22;96459.34;;;-0.06;100.00
44255;BME280;29933;47.226;15.734;2022-11-25T03:59:48;96462.94;;;-0.02;100.00
44255;BME280;29933;47.226;15.734;2022-11-25T04:02:14;96455.25;;;0.06;100.00
44255;BME280;29933;47.226;15.734;2022-11-25T04:04:40;96457.75;;;0.02;100.00
44255;BME280;29933;47.226;15.734;2022-11-25T04:07:06;96465.91;;;0.06;100.00
44255;BME280;29933;47.226;15.734;2022-11-25T04:09:32;96472.19;;;0.10;100.00
44255;BME280;29933;47.226;15.734;2022-11-25T04:11:57;96464.81;;;0.24;100.00
44255;BME280;29933;47.226;15.734;2022-11-25T04:14:42;96478.91;;;0.34;100.00
44255;BME280;29933;47.226;15.734;2022-11-25T04:17:08;96487.41;;;0.36;100.00
44255;BME280;29933;47.226;15.734;2022-11-25T04:19:34;96470.72;;;0.39;100.00
44255;BME280;29933;47.226;15.734;2022-11-25T04:22:00;96469.34;;;0.41;100.00
44255;BME280;29933;47.226;15.734;2022-11-25T04:24:27;96464.00;;;0.41;100.00
44255;BME280;29933;47.226;15.734;2022-11-25T04:26:53;96466.97;;;0.40;100.00
44255;BME280;29933;47.226;15.734;2022-11-25T04:29:19;96454.44;;;0.31;100.00
44255;BME280;29933;47.226;15.734;2022-11-25T04:31:45;96447.03;;;0.28;100.00
44255;BME280;29933;47.226;15.734;2022-11-25T04:34:11;96444.34;;;0.28;100.00
44255;BME280;29933;47.226;15.734;2022-11-25T04:36:37;96451.94;;;0.26;100.00
44255;BME280;29933;47.226;15.734;2022-11-25T04:39:03;96454.72;;;0.21;100.00
44255;BME280;29933;47.226;15.734;2022-11-25T04:41:29;96456.97;;;0.19;100.00
44255;BME280;29933;47.226;15.734;2022-11-25T04:43:57;96449.72;;;0.11;100.00
44255;BME280;29933;47.226;15.734;2022-11-25T04:46:27;96448.97;;;-0.07;100.00
44255;BME280;29933;47.226;15.734;2022-11-25T04:48:56;96448.66;;;-0.23;100.00
44255;BME280;29933;47.226;15.734;2022-11-25T04:51:21;96451.00;;;-0.22;100.00
44255;BME280;29933;47.226;15.734;2022-11-25T04:53:47;96450.22;;;-0.22;100.00
44255;BME280;29933;47.226;15.734;2022-11-25T04:56:18;96452.09;;;-0.23;100.00
44255;BME280;29933;47.226;15.734;2022-11-25T04:58:45;96445.19;;;-0.24;100.00
44255;BME280;29933;47.226;15.734;2022-11-25T05:01:30;96443.78;;;-0.12;100.00
44255;BME280;29933;47.226;15.734;2022-11-25T05:03:55;96434.03;;;-0.08;100.00
44255;BME280;29933;47.226;15.734;2022-11-25T05:06:22;96428.22;;;-0.02;100.00
44255;BME280;29933;47.226;15.734;2022-11-25T05:08:48;96423.50;;;0.04;100.00
44255;BME280;29933;47.226;15.734;2022-11-25T05:11:15;96423.50;;;0.13;100.00
44255;BME280;29933;47.226;15.734;2022-11-25T05:13:41;96429.44;;;0.19;100.00
44255;BME280;29933;47.226;15.734;2022-11-25T05:16:07;96431.03;;;0.20;100.00
44255;BME280;29933;47.226;15.734;2022-11-25T05:18:33;96420.31;;;0.28;100.00
44255;BME280;29933;47.226;15.734;2022-11-25T05:21:03;96416.53;;;0.29;100.00
44255;BME280;29933;47.226;15.734;2022-11-25T05:23:30;96417.63;;;0.37;100.00
44255;BME280;29933;47.226;15.734;2022-11-25T05:26:01;96424.22;;;0.40;100.00
44255;BME280;29933;47.226;15.734;2022-11-25T05:28:27;96424.88;;;0.37;100.00
44255;BME280;29933;47.226;15.734;2022-11-25T05:30:54;96420.63;;;0.36;100.00
44255;BME280;29933;47.226;15.734;2022-11-25T05:33:20;96423.78;;;0.29;100.00
44255;BME280;29933;47.226;15.734;2022-11-25T05:36:01;96423.16;;;0.23;100.00
44255;BME280;29933;47.226;15.734;2022-11-25T05:38:28;96419.41;;;0.15;100.00
44255;BME280;29933;47.226;15.734;2022-11-25T05:41:04;96431.66;;;0.17;100.00
44255;BME280;29933;47.226;15.734;2022-11-25T05:43:32;96427.41;;;0.15;100.00
44255;BME280;29933;47.226;15.734;2022-11-25T05:45:58;96423.31;;;0.18;100.00
44255;BME280;29933;47.226;15.734;2022-11-25T05:48:24;96425.06;;;0.23;100.00
44255;BME280;29933;47.226;15.734;2022-11-25T05:50:50;96423.81;;;0.20;100.00
44255;BME280;29933;47.226;15.734;2022-11-25T05:53:16;96420.81;;;0.13;100.00
44255;BME280;29933;47.226;15.734;2022-11-25T05:55:43;96422.09;;;0.07;100.00
44255;BME280;29933;47.226;15.734;2022-11-25T05:58:09;96428.22;;;0.07;100.00
44255;BME280;29933;47.226;15.734;2022-11-25T06:00:34;96434.81;;;0.10;100.00
44255;BME280;29933;47.226;15.734;2022-11-25T06:03:00;96439.97;;;0.15;100.00
44255;BME280;29933;47.226;15.734;2022-11-25T06:05:26;96447.19;;;0.23;100.00
44255;BME280;29933;47.226;15.734;2022-11-25T06:07:52;96451.44;;;0.33;100.00
44255;BME280;29933;47.226;15.734;2022-11-25T06:10:19;96452.34;;;0.37;100.00
44255;BME280;29933;47.226;15.734;2022-11-25T06:12:45;96461.94;;;0.38;100.00
44255;BME280;29933;47.226;15.734;2022-11-25T06:15:11;96466.38;;;0.34;100.00
44255;BME280;29933;47.226;15.734;2022-11-25T06:17:37;96467.78;;;0.31;100.00
44255;BME280;29933;47.226;15.734;2022-11-25T06:20:05;96480.97;;;0.28;100.00
44255;BME280;29933;47.226;15.734;2022-11-25T06:22:31;96492.44;;;0.28;100.00
44255;BME280;29933;47.226;15.734;2022-11-25T06:24:57;96494.66;;;0.26;100.00
44255;BME280;29933;47.226;15.734;2022-11-25T06:27:23;96497.47;;;0.21;100.00
44255;BME280;29933;47.226;15.734;2022-11-25T06:29:49;96492.94;;;0.13;100.00
44255;BME280;29933;47.226;15.734;2022-11-25T06:32:15;96491.03;;;0.13;100.00
44255;BME280;29933;47.226;15.734;2022-11-25T06:34:41;96503.31;;;0.14;100.00
44255;BME280;29933;47.226;15.734;2022-11-25T06:37:07;96505.50;;;0.12;100.00
44255;BME280;29933;47.226;15.734;2022-11-25T06:39:34;96515.56;;;0.15;100.00
44255;BME280;29933;47.226;15.734;2022-11-25T06:42:00;96502.22;;;0.07;100.00
44255;BME280;29933;47.226;15.734;2022-11-25T06:44:26;96506.47;;;-0.01;100.00
44255;BME280;29933;47.226;15.734;2022-11-25T06:46:52;96502.53;;;-0.04;100.00
44255;BME280;29933;47.226;15.734;2022-11-25T06:49:17;96502.69;;;0.00;100.00
44255;BME280;29933;47.226;15.734;2022-11-25T06:51:43;96499.69;;;0.02;100.00
44255;BME280;29933;47.226;15.734;2022-11-25T06:54:09;96508.16;;;0.04;100.00
44255;BME280;29933;47.226;15.734;2022-11-25T06:56:36;96506.13;;;0.01;100.00
44255;BME280;29933;47.226;15.734;2022-11-25T06:59:02;96519.00;;;-0.02;100.00
44255;BME280;29933;47.226;15.734;2022-11-25T07:01:29;96515.41;;;-0.06;100.00
44255;BME280;29933;47.226;15.734;2022-11-25T07:04:01;96510.69;;;-0.09;100.00
44255;BME280;29933;47.226;15.734;2022-11-25T07:06:29;96507.06;;;-0.13;100.00
44255;BME280;29933;47.226;15.734;2022-11-25T07:08:55;96507.88;;;-0.12;100.00
44255;BME280;29933;47.226;15.734;2022-11-25T07:11:28;96511.63;;;-0.05;100.00
44255;BME280;29933;47.226;15.734;2022-11-25T07:13:58;96513.22;;;-0.04;100.00
44255;BME280;29933;47.226;15.734;2022-11-25T07:16:25;96527.03;;;-0.02;100.00
44255;BME280;29933;47.226;15.734;2022-11-25T07:18:51;96531.25;;;-0.01;100.00
44255;BME280;29933;47.226;15.734;2022-11-25T07:21:21;96533.94;;;-0.01;100.00
44255;BME280;29933;47.226;15.734;2022-11-25T07:23:48;96543.03;;;-0.02;100.00
44255;BME280;29933;47.226;15.734;2022-11-25T07:26:20;96537.09;;;0.02;100.00
44255;BME280;29933;47.226;15.734;2022-11-25T07:28:47;96544.94;;;0.07;100.00
44255;BME280;29933;47.226;15.734;2022-11-25T07:31:23;96547.59;;;0.07;100.00
44255;BME280;29933;47.226;15.734;2022-11-25T07:33:56;96553.56;;;0.04;100.00
44255;BME280;29933;47.226;15.734;2022-11-25T07:36:23;96557.19;;;0.08;100.00
44255;BME280;29933;47.226;15.734;2022-11-25T07:38:50;96563.31;;;0.08;100.00
44255;BME280;29933;47.226;15.734;2022-11-25T07:41:20;96547.59;;;0.07;100.00
44255;BME280;29933;47.226;15.734;2022-11-25T07:43:55;96563.00;;;0.10;100.00
44255;BME280;29933;47.226;15.734;2022-11-25T07:46:31;96561.44;;;0.09;100.00
44255;BME280;29933;47.226;15.734;2022-11-25T07:49:01;96567.88;;;0.08;100.00
44255;BME280;29933;47.226;15.734;2022-11-25T07:51:40;96572.75;;;0.14;100.00
44255;BME280;29933;47.226;15.734;2022-11-25T07:54:10;96578.25;;;0.18;100.00
44255;BME280;29933;47.226;15.734;2022-11-25T07:56:38;96579.81;;;0.19;100.00
44255;BME280;29933;47.226;15.734;2022-11-25T07:59:06;96580.75;;;0.23;100.00
44255;BME280;29933;47.226;15.734;2022-11-25T08:01:32;96576.34;;;0.27;100.00
44255;BME280;29933;47.226;15.734;2022-11-25T08:03:58;96572.75;;;0.32;100.00
44255;BME280;29933;47.226;15.734;2022-11-25T08:06:27;96574.94;;;0.39;100.00
44255;BME280;29933;47.226;15.734;2022-11-25T08:08:55;96577.16;;;0.45;100.00
44255;BME280;29933;47.226;15.734;2022-11-25T08:11:26;96573.22;;;0.52;100.00
44255;BME280;29933;47.226;15.734;2022-11-25T08:13:52;96569.91;;;0.55;100.00
44255;BME280;29933;47.226;15.734;2022-11-25T08:16:22;96571.78;;;0.63;100.00
44255;BME280;29933;47.226;15.734;2022-11-25T08:18:48;96571.94;;;0.67;100.00
44255;BME280;29933;47.226;15.734;2022-11-25T08:21:15;96574.78;;;0.70;100.00
44255;BME280;29933;47.226;15.734;2022-11-25T08:23:42;96570.69;;;0.73;100.00
44255;BME280;29933;47.226;15.734;2022-11-25T08:26:13;96569.59;;;0.74;100.00
44255;BME280;29933;47.226;15.734;2022-11-25T08:28:40;96570.50;;;0.78;100.00
44255;BME280;29933;47.226;15.734;2022-11-25T08:31:20;96572.38;;;0.77;100.00
44255;BME280;29933;47.226;15.734;2022-11-25T08:33:48;96571.59;;;0.86;100.00
44255;BME280;29933;47.226;15.734;2022-11-25T08:36:16;96575.50;;;0.88;100.00
44255;BME280;29933;47.226;15.734;2022-11-25T08:38:43;96583.69;;;0.92;100.00
44255;BME280;29933;47.226;15.734;2022-11-25T08:41:17;96584.75;;;1.00;100.00
44255;BME280;29933;47.226;15.734;2022-11-25T08:43:43;96583.16;;;1.07;100.00
44255;BME280;29933;47.226;15.734;2022-11-25T08:46:17;96587.38;;;1.17;100.00
44255;BME280;29933;47.226;15.734;2022-11-25T08:48:43;96584.06;;;1.29;100.00
44255;BME280;29933;47.226;15.734;2022-11-25T08:51:15;96593.63;;;1.39;100.00
44255;BME280;29933;47.226;15.734;2022-11-25T08:53:42;96594.38;;;1.48;100.00
44255;BME280;29933;47.226;15.734;2022-11-25T08:56:08;96591.50;;;1.53;100.00
44255;BME280;29933;47.226;15.734;2022-11-25T08:58:35;96585.66;;;1.60;100.00
44255;BME280;29933;47.226;15.734;2022-11-25T09:01:02;96586.88;;;1.71;100.00
44255;BME280;29933;47.226;15.734;2022-11-25T09:03:32;96587.41;;;1.86;100.00
44255;BME280;29933;47.226;15.734;2022-11-25T09:05:58;96582.59;;;2.00;100.00
44255;BME280;29933;47.226;15.734;2022-11-25T09:08:26;96585.50;;;2.16;100.00
44255;BME280;29933;47.226;15.734;2022-11-25T09:10:52;96580.00;;;2.34;100.00
44255;BME280;29933;47.226;15.734;2022-11-25T09:13:18;96584.56;;;2.54;100.00
44255;BME280;29933;47.226;15.734;2022-11-25T09:15:44;96573.66;;;2.72;100.00
44255;BME280;29933;47.226;15.734;2022-11-25T09:18:10;96578.75;;;2.86;100.00
44255;BME280;29933;47.226;15.734;2022-11-25T09:20:38;96581.59;;;3.02;100.00
44255;BME280;29933;47.226;15.734;2022-11-25T09:23:06;96570.53;;;3.16;100.00
44255;BME280;29933;47.226;15.734;2022-11-25T09:25:32;96572.72;;;3.35;100.00
44255;BME280;29933;47.226;15.734;2022-11-25T09:27:58;96571.16;;;3.59;100.00
44255;BME280;29933;47.226;15.734;2022-11-25T09:30:25;96566.19;;;3.98;100.00
44255;BME280;29933;47.226;15.734;2022-11-25T09:32:53;96568.50;;;4.24;100.00
44255;BME280;29933;47.226;15.734;2022-11-25T09:35:21;96572.44;;;4.55;100.00
44255;BME280;29933;47.226;15.734;2022-11-25T09:37:47;96561.38;;;5.01;100.00
44255;BME280;29933;47.226;15.734;2022-11-25T09:43:01;96556.63;;;6.10;100.00
44255;BME280;29933;47.226;15.734;2022-11-25T09:54:34;96547.19;;;7.44;100.00
44255;BME280;29933;47.226;15.734;2022-11-25T09:57:31;96547.94;;;8.25;100.00
44255;BME280;29933;47.226;15.734;2022-11-25T10:00:08;96535.75;;;8.69;100.00
44255;BME280;29933;47.226;15.734;2022-11-25T10:05:31;96538.38;;;9.93;100.00
44255;BME280;29933;47.226;15.734;2022-11-25T10:08:16;96538.81;;;9.50;100.00
44255;BME280;29933;47.226;15.734;2022-11-25T10:10:47;96533.31;;;9.88;100.00
44255;BME280;29933;47.226;15.734;2022-11-25T10:13:58;96521.25;;;10.52;100.00
44255;BME280;29933;47.226;15.734;2022-11-25T10:21:56;96506.97;;;10.88;100.00
44255;BME280;29933;47.226;15.734;2022-11-25T10:24:22;96503.75;;;10.46;100.00
44255;BME280;29933;47.226;15.734;2022-11-25T10:26:56;96499.47;;;10.41;100.00
44255;BME280;29933;47.226;15.734;2022-11-25T10:29:25;96496.81;;;10.66;100.00
44255;BME280;29933;47.226;15.734;2022-11-25T10:31:56;96500.72;;;10.69;100.00
44255;BME280;29933;47.226;15.734;2022-11-25T10:34:38;96495.31;;;10.80;100.00
44255;BME280;29933;47.226;15.734;2022-11-25T10:37:15;96487.91;;;10.62;100.00
44255;BME280;29933;47.226;15.734;2022-11-25T10:39:43;96485.34;;;10.10;100.00
44255;BME280;29933;47.226;15.734;2022-11-25T10:42:14;96481.13;;;10.20;100.00
44255;BME280;29933;47.226;15.734;2022-11-25T10:44:42;96482.56;;;11.16;100.00
44255;BME280;29933;47.226;15.734;2022-11-25T10:52:14;96474.38;;;11.71;100.00
44255;BME280;29933;47.226;15.734;2022-11-25T10:54:57;96479.81;;;11.74;100.00
44255;BME280;29933;47.226;15.734;2022-11-25T10:57:32;96468.13;;;11.85;100.00
44255;BME280;29933;47.226;15.734;2022-11-25T10:59:59;96465.38;;;12.03;100.00
44255;BME280;29933;47.226;15.734;2022-11-25T11:07:40;96459.00;;;12.45;88.63
44255;BME280;29933;47.226;15.734;2022-11-25T11:10:21;96453.22;;;12.32;90.97
44255;BME280;29933;47.226;15.734;2022-11-25T11:13:04;96456.03;;;12.04;88.39
44255;BME280;29933;47.226;15.734;2022-11-25T11:20:48;96444.88;;;11.08;87.51
44255;BME280;29933;47.226;15.734;2022-11-25T11:23:15;96448.78;;;10.96;90.57
44255;BME280;29933;47.226;15.734;2022-11-25T11:25:43;96441.00;;;11.09;93.86
44255;BME280;29933;47.226;15.734;2022-11-25T11:31:25;96445.63;;;10.86;92.26
44255;BME280;29933;47.226;15.734;2022-11-25T11:34:14;96439.41;;;10.72;89.80
44255;BME280;29933;47.226;15.734;2022-11-25T11:43:02;96439.44;;;10.79;95.62
44255;BME280;29933;47.226;15.734;2022-11-25T11:48:50;96447.16;;;10.62;93.59
44255;BME280;29933;47.226;15.734;2022-11-25T11:52:00;96440.97;;;10.58;92.61
44255;BME280;29933;47.226;15.734;2022-11-25T11:54:34;96443.19;;;10.31;85.11
44255;BME280;29933;47.226;15.734;2022-11-25T11:57:58;96443.94;;;10.31;93.19
44255;BME280;29933;47.226;15.734;2022-11-25T12:00:28;96440.91;;;10.44;94.84
44255;BME280;29933;47.226;15.734;2022-11-25T12:03:20;96442.88;;;10.58;94.05
44255;BME280;29933;47.226;15.734;2022-11-25T12:05:48;96442.91;;;10.68;92.59
44255;BME280;29933;47.226;15.734;2022-11-25T12:11:04;96437.13;;;10.81;98.29
44255;BME280;29933;47.226;15.734;2022-11-25T12:14:03;96434.00;;;10.86;94.28
44255;BME280;29933;47.226;15.734;2022-11-25T12:16:55;96432.47;;;10.92;97.38
44255;BME280;29933;47.226;15.734;2022-11-25T12:22:49;96435.56;;;11.09;95.36
44255;BME280;29933;47.226;15.734;2022-11-25T12:25:30;96427.81;;;11.11;93.63
44255;BME280;29933;47.226;15.734;2022-11-25T12:28:22;96434.78;;;11.01;91.19
44255;BME280;29933;47.226;15.734;2022-11-25T12:31:31;96437.91;;;10.99;89.82
44255;BME280;29933;47.226;15.734;2022-11-25T12:34:16;96442.56;;;10.84;85.21
44255;BME280;29933;47.226;15.734;2022-11-25T12:36:44;96438.66;;;10.96;89.36
44255;BME280;29933;47.226;15.734;2022-11-25T12:39:27;96435.59;;;10.98;90.92
44255;BME280;29933;47.226;15.734;2022-11-25T12:42:01;96436.75;;;11.00;90.13
44255;BME280;29933;47.226;15.734;2022-11-25T12:44:30;96432.84;;;11.09;90.63
44255;BME280;29933;47.226;15.734;2022-11-25T12:46:58;96431.69;;;11.02;89.21
44255;BME280;29933;47.226;15.734;2022-11-25T12:49:27;96431.69;;;10.95;88.89
44255;BME280;29933;47.226;15.734;2022-11-25T12:55:22;96436.31;;;10.69;84.16
44255;BME280;29933;47.226;15.734;2022-11-25T12:58:22;96429.72;;;10.71;87.46
44255;BME280;29933;47.226;15.734;2022-11-25T13:01:15;96432.81;;;10.73;86.31
44255;BME280;29933;47.226;15.734;2022-11-25T13:07:29;96434.00;;;10.79;86.73
44255;BME280;29933;47.226;15.734;2022-11-25T13:11:04;96440.22;;;10.76;88.26
44255;BME280;29933;47.226;15.734;2022-11-25T13:13:58;96439.41;;;10.75;90.72
44255;BME280;29933;47.226;15.734;2022-11-25T13:16:27;96444.09;;;10.75;88.77
44255;BME280;29933;47.226;15.734;2022-11-25T13:18:54;96437.09;;;10.74;88.94
44255;BME280;29933;47.226;15.734;2022-11-25T13:21:21;96438.25;;;10.76;90.56
44255;BME280;29933;47.226;15.734;2022-11-25T13:23:57;96427.81;;;10.82;90.48
44255;BME280;29933;47.226;15.734;2022-11-25T13:32:02;96424.69;;;10.80;88.52
44255;BME280;29933;47.226;15.734;2022-11-25T13:34:34;96432.44;;;10.81;88.44
44255;BME280;29933;47.226;15.734;2022-11-25T13:43:53;96422.34;;;10.67;86.69
44255;BME280;29933;47.226;15.734;2022-11-25T13:46:40;96436.28;;;10.51;89.12
44255;BME280;29933;47.226;15.734;2022-11-25T13:49:34;96429.66;;;10.45;91.44
44255;BME280;29933;47.226;15.734;2022-11-25T13:54:49;96433.88;;;10.32;92.20
44255;BME280;29933;47.226;15.734;2022-11-25T13:57:34;96436.16;;;10.19;91.18
44255;BME280;29933;47.226;15.734;2022-11-25T14:02:47;96446.22;;;10.15;94.12
44255;BME280;29933;47.226;15.734;2022-11-25T14:05:48;96440.38;;;10.13;95.56
44255;BME280;29933;47.226;15.734;2022-11-25T14:11:30;96446.03;;;9.75;96.59
44255;BME280;29933;47.226;15.734;2022-11-25T14:14:34;96449.78;;;9.56;96.91
44255;BME280;29933;47.226;15.734;2022-11-25T14:21:09;96445.38;;;8.85;100.00
44255;BME280;29933;47.226;15.734;2022-11-25T14:26:33;96449.53;;;8.03;100.00
44255;BME280;29933;47.226;15.734;2022-11-25T14:31:57;96447.91;;;7.68;100.00
44255;BME280;29933;47.226;15.734;2022-11-25T14:34:31;96455.72;;;7.46;100.00
44255;BME280;29933;47.226;15.734;2022-11-25T14:38:16;96455.41;;;7.25;100.00
44255;BME280;29933;47.226;15.734;2022-11-25T14:43:28;96460.38;;;6.76;100.00
44255;BME280;29933;47.226;15.734;2022-11-25T14:46:22;96457.31;;;6.55;100.00